sensor_id;sensor_type;location;lat;lon;timestamp;pressure;altitude;pressure_sealevel;temperature;humidity
39887;BME280;25559;44.738;20.980;2022-08-21T00:01:05;100053.44;;;25.18;87.98
39887;BME280;25559;44.738;20.980;2022-08-21T00:03:32;100043.97;;;25.16;87.76
39887;BME280;25559;44.738;20.980;2022-08-21T00:05:58;100039.06;;;25.11;87.83
39887;BME280;25559;44.738;20.980;2022-08-21T00:08:23;100042.78;;;25.09;88.05
39887;BME280;25559;44.738;20.980;2022-08-21T00:10:50;100038.59;;;25.06;87.87
39887;BME280;25559;44.738;20.980;2022-08-21T00:13:16;100028.50;;;25.00;87.70
39887;BME280;25559;44.738;20.980;2022-08-21T00:15:43;100042.72;;;24.99;88.00
39887;BME280;25559;44.738;20.980;2022-08-21T00:18:09;100036.00;;;24.95;87.60
39887;BME280;25559;44.738;20.980;2022-08-21T00:20:37;100036.97;;;24.94;87.93
39887;BME280;25559;44.738;20.980;2022-08-21T00:23:03;100038.19;;;24.90;87.78
39887;BME280;25559;44.738;20.980;2022-08-21T00:25:29;100044.75;;;24.86;88.18
39887;BME280;25559;44.738;20.980;2022-08-21T00:27:55;100046.91;;;24.80;88.03
39887;BME280;25559;44.738;20.980;2022-08-21T00:30:21;100037.41;;;24.78;88.16
39887;BME280;25559;44.738;20.980;2022-08-21T00:32:47;100041.88;;;24.77;88.23
39887;BME280;25559;44.738;20.980;2022-08-21T00:35:16;100043.56;;;24.78;87.99
39887;BME280;25559;44.738;20.980;2022-08-21T00:37:42;100042.81;;;24.76;87.85
39887;BME280;25559;44.738;20.980;2022-08-21T00:40:13;100044.53;;;24.77;87.95
39887;BME280;25559;44.738;20.980;2022-08-21T00:42:38;100046.47;;;24.75;88.03
39887;BME280;25559;44.738;20.980;2022-08-21T00:45:05;100045.47;;;24.76;88.03
39887;BME280;25559;44.738;20.980;2022-08-21T00:47:30;100041.88;;;24.77;87.69
39887;BME280;25559;44.738;20.980;2022-08-21T00:49:56;100041.88;;;24.77;87.74
39887;BME280;25559;44.738;20.980;2022-08-21T00:52:25;100032.00;;;24.79;87.62
39887;BME280;25559;44.738;20.980;2022-08-21T00:54:51;100032.69;;;24.81;87.44
39887;BME280;25559;44.738;20.980;2022-08-21T00:57:22;100024.38;;;24.86;86.86
39887;BME280;25559;44.738;20.980;2022-08-21T00:59:51;100020.88;;;24.86;86.67
39887;BME280;25559;44.738;20.980;2022-08-21T01:02:19;100021.59;;;24.88;86.34
39887;BME280;25559;44.738;20.980;2022-08-21T01:04:46;100017.25;;;24.87;86.21
39887;BME280;25559;44.738;20.980;2022-08-21T01:07:12;100014.97;;;24.82;86.65
39887;BME280;25559;44.738;20.980;2022-08-21T01:09:38;100023.06;;;24.80;86.83
39887;BME280;25559;44.738;20.980;2022-08-21T01:12:04;100016.09;;;24.79;86.90
39887;BME280;25559;44.738;20.980;2022-08-21T01:14:31;100014.53;;;24.77;86.93
39887;BME280;25559;44.738;20.980;2022-08-21T01:16:58;100021.75;;;24.75;86.97
39887;BME280;25559;44.738;20.980;2022-08-21T01:19:25;100015.88;;;24.71;87.27
39887;BME280;25559;44.738;20.980;2022-08-21T01:21:51;100012.53;;;24.69;87.46
39887;BME280;25559;44.738;20.980;2022-08-21T01:24:17;100012.66;;;24.68;87.59
39887;BME280;25559;44.738;20.980;2022-08-21T01:26:44;100021.31;;;24.70;87.74
39887;BME280;25559;44.738;20.980;2022-08-21T01:29:16;100011.56;;;24.70;87.83
39887;BME280;25559;44.738;20.980;2022-08-21T01:31:45;100011.41;;;24.72;87.79
39887;BME280;25559;44.738;20.980;2022-08-21T01:34:11;100001.81;;;24.71;87.67
39887;BME280;25559;44.738;20.980;2022-08-21T01:36:37;100006.00;;;24.73;87.49
39887;BME280;25559;44.738;20.980;2022-08-21T01:39:04;100005.16;;;24.73;87.73
39887;BME280;25559;44.738;20.980;2022-08-21T01:41:30;99998.03;;;24.73;87.70
39887;BME280;25559;44.738;20.980;2022-08-21T01:43:55;100002.38;;;24.74;87.80
39887;BME280;25559;44.738;20.980;2022-08-21T01:46:21;100005.88;;;24.75;87.63
39887;BME280;25559;44.738;20.980;2022-08-21T01:48:47;100001.41;;;24.75;87.75
39887;BME280;25559;44.738;20.980;2022-08-21T01:51:12;100002.00;;;24.79;87.57
39887;BME280;25559;44.738;20.980;2022-08-21T01:53:38;99998.78;;;24.75;87.46
39887;BME280;25559;44.738;20.980;2022-08-21T01:56:07;99998.38;;;24.80;87.52
39887;BME280;25559;44.738;20.980;2022-08-21T01:58:33;99995.88;;;24.78;87.34
39887;BME280;25559;44.738;20.980;2022-08-21T02:01:00;100002.84;;;24.79;87.35
39887;BME280;25559;44.738;20.980;2022-08-21T02:03:28;100003.94;;;24.77;87.63
39887;BME280;25559;44.738;20.980;2022-08-21T02:05:54;100001.56;;;24.74;88.00
39887;BME280;25559;44.738;20.980;2022-08-21T02:08:19;99994.69;;;24.71;87.91
39887;BME280;25559;44.738;20.980;2022-08-21T02:10:49;100003.47;;;24.72;87.82
39887;BME280;25559;44.738;20.980;2022-08-21T02:13:15;99997.34;;;24.71;88.08
39887;BME280;25559;44.738;20.980;2022-08-21T02:15:41;99997.34;;;24.71;88.20
39887;BME280;25559;44.738;20.980;2022-08-21T02:18:07;99995.66;;;24.70;88.34
39887;BME280;25559;44.738;20.980;2022-08-21T02:20:45;99994.13;;;24.68;88.74
39887;BME280;25559;44.738;20.980;2022-08-21T02:23:12;99993.38;;;24.65;89.30
39887;BME280;25559;44.738;20.980;2022-08-21T02:25:38;99998.94;;;24.62;90.03
39887;BME280;25559;44.738;20.980;2022-08-21T02:28:10;99996.41;;;24.61;90.48
39887;BME280;25559;44.738;20.980;2022-08-21T02:30:41;99993.06;;;24.59;90.67
39887;BME280;25559;44.738;20.980;2022-08-21T02:33:08;99995.94;;;24.56;90.94
39887;BME280;25559;44.738;20.980;2022-08-21T02:35:35;99995.63;;;24.49;90.95
39887;BME280;25559;44.738;20.980;2022-08-21T02:38:04;99994.31;;;24.43;91.29
39887;BME280;25559;44.738;20.980;2022-08-21T02:40:33;100005.03;;;24.42;91.67
39887;BME280;25559;44.738;20.980;2022-08-21T02:43:01;100000.00;;;24.39;92.18
39887;BME280;25559;44.738;20.980;2022-08-21T02:45:28;100004.44;;;24.38;92.36
39887;BME280;25559;44.738;20.980;2022-08-21T02:47:59;100005.41;;;24.37;92.61
39887;BME280;25559;44.738;20.980;2022-08-21T02:50:37;100006.38;;;24.36;92.31
39887;BME280;25559;44.738;20.980;2022-08-21T02:53:04;100009.84;;;24.37;92.62
39887;BME280;25559;44.738;20.980;2022-08-21T02:55:32;100010.72;;;24.37;92.39
39887;BME280;25559;44.738;20.980;2022-08-21T02:57:58;100002.91;;;24.36;92.33
39887;BME280;25559;44.738;20.980;2022-08-21T03:00:26;100003.59;;;24.38;92.52
39887;BME280;25559;44.738;20.980;2022-08-21T03:02:53;100006.50;;;24.35;92.18
39887;BME280;25559;44.738;20.980;2022-08-21T03:05:19;99996.03;;;24.33;92.02
39887;BME280;25559;44.738;20.980;2022-08-21T03:07:45;99994.09;;;24.35;91.94
39887;BME280;25559;44.738;20.980;2022-08-21T03:10:13;99993.25;;;24.35;91.73
39887;BME280;25559;44.738;20.980;2022-08-21T03:12:39;99994.09;;;24.35;91.13
39887;BME280;25559;44.738;20.980;2022-08-21T03:15:08;99990.50;;;24.36;90.39
39887;BME280;25559;44.738;20.980;2022-08-21T03:17:35;99992.19;;;24.37;89.82
39887;BME280;25559;44.738;20.980;2022-08-21T03:20:01;99989.53;;;24.37;89.07
39887;BME280;25559;44.738;20.980;2022-08-21T03:22:28;99997.34;;;24.39;88.44
39887;BME280;25559;44.738;20.980;2022-08-21T03:24:53;99988.69;;;24.37;87.84
39887;BME280;25559;44.738;20.980;2022-08-21T03:27:19;99994.97;;;24.36;87.57
39887;BME280;25559;44.738;20.980;2022-08-21T03:29:45;99999.38;;;24.35;87.26
39887;BME280;25559;44.738;20.980;2022-08-21T03:32:11;100000.50;;;24.33;86.94
39887;BME280;25559;44.738;20.980;2022-08-21T03:34:37;99997.00;;;24.32;86.61
39887;BME280;25559;44.738;20.980;2022-08-21T03:37:04;99994.03;;;24.25;86.56
39887;BME280;25559;44.738;20.980;2022-08-21T03:39:30;100001.25;;;24.23;86.14
39887;BME280;25559;44.738;20.980;2022-08-21T03:41:56;99999.69;;;24.21;85.99
39887;BME280;25559;44.738;20.980;2022-08-21T03:44:22;99998.00;;;24.20;86.14
39887;BME280;25559;44.738;20.980;2022-08-21T03:46:47;99999.56;;;24.22;86.11
39887;BME280;25559;44.738;20.980;2022-08-21T03:49:13;99993.31;;;24.23;86.00
39887;BME280;25559;44.738;20.980;2022-08-21T03:51:39;99990.69;;;24.23;85.76
39887;BME280;25559;44.738;20.980;2022-08-21T03:54:04;99994.28;;;24.22;85.90
39887;BME280;25559;44.738;20.980;2022-08-21T03:56:30;99998.75;;;24.22;86.01
39887;BME280;25559;44.738;20.980;2022-08-21T03:58:56;99993.56;;;24.20;85.76
39887;BME280;25559;44.738;20.980;2022-08-21T04:01:22;99995.34;;;24.20;86.30
39887;BME280;25559;44.738;20.980;2022-08-21T04:03:47;99994.66;;;24.18;86.13
39887;BME280;25559;44.738;20.980;2022-08-21T04:06:13;99999.81;;;24.19;86.39
39887;BME280;25559;44.738;20.980;2022-08-21T04:08:38;99993.69;;;24.19;86.56
39887;BME280;25559;44.738;20.980;2022-08-21T04:11:05;99995.63;;;24.17;86.55
39887;BME280;25559;44.738;20.980;2022-08-21T04:13:31;100000.06;;;24.16;86.78
39887;BME280;25559;44.738;20.980;2022-08-21T04:15:57;99998.38;;;24.15;86.79
39887;BME280;25559;44.738;20.980;2022-08-21T04:18:23;99992.63;;;24.10;87.08
39887;BME280;25559;44.738;20.980;2022-08-21T04:20:51;99992.50;;;24.11;87.11
39887;BME280;25559;44.738;20.980;2022-08-21T04:23:19;99997.19;;;24.08;87.33
39887;BME280;25559;44.738;20.980;2022-08-21T04:25:45;99999.72;;;24.09;87.59
39887;BME280;25559;44.738;20.980;2022-08-21T04:28:10;99998.06;;;24.08;87.50
39887;BME280;25559;44.738;20.980;2022-08-21T04:30:36;99995.66;;;24.05;87.74
39887;BME280;25559;44.738;20.980;2022-08-21T04:33:02;99999.13;;;24.06;87.86
39887;BME280;25559;44.738;20.980;2022-08-21T04:35:29;99998.31;;;24.05;87.96
39887;BME280;25559;44.738;20.980;2022-08-21T04:37:56;99999.00;;;24.07;87.96
39887;BME280;25559;44.738;20.980;2022-08-21T04:40:23;99998.06;;;24.08;88.02
39887;BME280;25559;44.738;20.980;2022-08-21T04:42:53;99999.97;;;24.06;88.08
39887;BME280;25559;44.738;20.980;2022-08-21T04:45:24;100003.47;;;24.07;88.14
39887;BME280;25559;44.738;20.980;2022-08-21T04:47:53;100010.44;;;24.08;88.29
39887;BME280;25559;44.738;20.980;2022-08-21T04:50:20;100008.03;;;24.05;88.29
39887;BME280;25559;44.738;20.980;2022-08-21T04:53:03;100014.19;;;24.05;88.37
39887;BME280;25559;44.738;20.980;2022-08-21T04:55:29;100012.50;;;24.04;88.80
39887;BME280;25559;44.738;20.980;2022-08-21T04:57:55;100012.75;;;24.01;88.80
39887;BME280;25559;44.738;20.980;2022-08-21T05:00:22;100022.13;;;24.05;88.95
39887;BME280;25559;44.738;20.980;2022-08-21T05:02:51;100022.00;;;24.07;88.93
39887;BME280;25559;44.738;20.980;2022-08-21T05:05:21;100030.78;;;24.07;89.17
39887;BME280;25559;44.738;20.980;2022-08-21T05:07:47;100032.59;;;24.07;89.15
39887;BME280;25559;44.738;20.980;2022-08-21T05:10:13;100037.03;;;24.06;89.20
39887;BME280;25559;44.738;20.980;2022-08-21T05:12:40;100033.41;;;24.07;89.06
39887;BME280;25559;44.738;20.980;2022-08-21T05:15:07;100030.78;;;24.07;89.20
39887;BME280;25559;44.738;20.980;2022-08-21T05:17:33;100035.94;;;24.09;89.14
39887;BME280;25559;44.738;20.980;2022-08-21T05:19:59;100034.25;;;24.08;88.85
39887;BME280;25559;44.738;20.980;2022-08-21T05:22:24;100029.06;;;24.06;88.91
39887;BME280;25559;44.738;20.980;2022-08-21T05:24:51;100029.06;;;24.06;88.70
39887;BME280;25559;44.738;20.980;2022-08-21T05:27:17;100034.50;;;24.05;88.58
39887;BME280;25559;44.738;20.980;2022-08-21T05:29:43;100035.34;;;24.05;88.69
39887;BME280;25559;44.738;20.980;2022-08-21T05:32:10;100036.19;;;24.06;88.87
39887;BME280;25559;44.738;20.980;2022-08-21T05:34:36;100042.31;;;24.06;88.98
39887;BME280;25559;44.738;20.980;2022-08-21T05:37:02;100037.25;;;24.03;88.90
39887;BME280;25559;44.738;20.980;2022-08-21T05:39:28;100033.53;;;24.06;88.96
39887;BME280;25559;44.738;20.980;2022-08-21T05:41:53;100038.84;;;24.06;88.81
39887;BME280;25559;44.738;20.980;2022-08-21T05:44:19;100030.19;;;24.04;89.10
39887;BME280;25559;44.738;20.980;2022-08-21T05:46:44;100031.84;;;24.05;88.98
39887;BME280;25559;44.738;20.980;2022-08-21T05:49:10;100032.72;;;24.05;89.25
39887;BME280;25559;44.738;20.980;2022-08-21T05:51:36;100031.59;;;24.08;88.92
39887;BME280;25559;44.738;20.980;2022-08-21T05:54:02;100034.13;;;24.09;88.87
39887;BME280;25559;44.738;20.980;2022-08-21T05:56:28;100032.34;;;24.10;88.90
39887;BME280;25559;44.738;20.980;2022-08-21T05:58:53;100035.00;;;24.10;88.92
39887;BME280;25559;44.738;20.980;2022-08-21T06:01:19;100031.22;;;24.12;88.76
39887;BME280;25559;44.738;20.980;2022-08-21T06:03:45;100029.69;;;24.10;88.98
39887;BME280;25559;44.738;20.980;2022-08-21T06:06:10;100028.84;;;24.09;89.19
39887;BME280;25559;44.738;20.980;2022-08-21T06:08:37;100032.47;;;24.08;89.63
39887;BME280;25559;44.738;20.980;2022-08-21T06:11:03;100030.66;;;24.09;90.44
39887;BME280;25559;44.738;20.980;2022-08-21T06:13:29;100030.53;;;24.10;91.06
39887;BME280;25559;44.738;20.980;2022-08-21T06:16:07;100028.59;;;24.12;91.63
39887;BME280;25559;44.738;20.980;2022-08-21T06:18:34;100029.56;;;24.11;92.15
39887;BME280;25559;44.738;20.980;2022-08-21T06:21:00;100028.59;;;24.12;92.35
39887;BME280;25559;44.738;20.980;2022-08-21T06:23:25;100027.03;;;24.10;92.92
39887;BME280;25559;44.738;20.980;2022-08-21T06:25:51;100029.56;;;24.11;92.91
39887;BME280;25559;44.738;20.980;2022-08-21T06:28:16;100027.75;;;24.12;93.03
39887;BME280;25559;44.738;20.980;2022-08-21T06:30:42;100026.06;;;24.11;93.24
39887;BME280;25559;44.738;20.980;2022-08-21T06:33:08;100018.13;;;24.11;93.78
39887;BME280;25559;44.738;20.980;2022-08-21T06:35:34;100023.16;;;24.14;94.02
39887;BME280;25559;44.738;20.980;2022-08-21T06:37:59;100022.34;;;24.13;94.17
39887;BME280;25559;44.738;20.980;2022-08-21T06:40:26;100020.38;;;24.16;94.26
39887;BME280;25559;44.738;20.980;2022-08-21T06:42:52;100021.25;;;24.16;94.49
39887;BME280;25559;44.738;20.980;2022-08-21T06:45:18;100023.78;;;24.18;94.26
39887;BME280;25559;44.738;20.980;2022-08-21T06:47:43;100017.53;;;24.19;94.71
39887;BME280;25559;44.738;20.980;2022-08-21T06:50:09;100019.78;;;24.23;94.36
39887;BME280;25559;44.738;20.980;2022-08-21T06:52:36;100020.50;;;24.25;94.05
39887;BME280;25559;44.738;20.980;2022-08-21T06:55:05;100025.53;;;24.28;94.05
39887;BME280;25559;44.738;20.980;2022-08-21T06:57:31;100027.13;;;24.31;93.87
39887;BME280;25559;44.738;20.980;2022-08-21T06:59:56;100027.69;;;24.35;93.77
39887;BME280;25559;44.738;20.980;2022-08-21T07:02:22;100027.69;;;24.35;93.37
39887;BME280;25559;44.738;20.980;2022-08-21T07:04:47;100031.91;;;24.37;93.44
39887;BME280;25559;44.738;20.980;2022-08-21T07:07:13;100032.03;;;24.36;93.28
39887;BME280;25559;44.738;20.980;2022-08-21T07:09:39;100033.69;;;24.37;93.05
39887;BME280;25559;44.738;20.980;2022-08-21T07:12:04;100032.84;;;24.36;92.72
39887;BME280;25559;44.738;20.980;2022-08-21T07:14:31;100037.19;;;24.37;92.65
39887;BME280;25559;44.738;20.980;2022-08-21T07:16:57;100032.59;;;24.39;92.67
39887;BME280;25559;44.738;20.980;2022-08-21T07:19:22;100034.44;;;24.39;92.71
39887;BME280;25559;44.738;20.980;2022-08-21T07:21:48;100030.66;;;24.41;92.63
39887;BME280;25559;44.738;20.980;2022-08-21T07:24:14;100027.75;;;24.44;92.40
39887;BME280;25559;44.738;20.980;2022-08-21T07:26:40;100028.38;;;24.48;91.91
39887;BME280;25559;44.738;20.980;2022-08-21T07:29:05;100017.91;;;24.46;91.41
39887;BME280;25559;44.738;20.980;2022-08-21T07:31:31;100013.19;;;24.50;91.31
39887;BME280;25559;44.738;20.980;2022-08-21T07:33:57;100029.44;;;24.57;90.77
39887;BME280;25559;44.738;20.980;2022-08-21T07:36:23;100019.56;;;24.59;90.84
39887;BME280;25559;44.738;20.980;2022-08-21T07:38:48;100013.53;;;24.57;90.80
39887;BME280;25559;44.738;20.980;2022-08-21T07:41:20;100017.75;;;24.59;90.79
39887;BME280;25559;44.738;20.980;2022-08-21T07:43:46;100026.44;;;24.61;90.41
39887;BME280;25559;44.738;20.980;2022-08-21T07:46:12;100025.44;;;24.62;90.53
39887;BME280;25559;44.738;20.980;2022-08-21T07:48:38;100024.47;;;24.63;90.18
39887;BME280;25559;44.738;20.980;2022-08-21T07:51:10;100020.25;;;24.61;90.23
39887;BME280;25559;44.738;20.980;2022-08-21T07:53:37;100021.00;;;24.63;90.10
39887;BME280;25559;44.738;20.980;2022-08-21T07:56:03;100026.03;;;24.66;89.86
39887;BME280;25559;44.738;20.980;2022-08-21T07:58:30;100023.00;;;24.71;89.72
39887;BME280;25559;44.738;20.980;2022-08-21T08:00:56;100021.06;;;24.73;89.36
39887;BME280;25559;44.738;20.980;2022-08-21T08:03:22;100014.41;;;24.78;89.06
39887;BME280;25559;44.738;20.980;2022-08-21T08:05:47;100015.84;;;24.82;88.96
39887;BME280;25559;44.738;20.980;2022-08-21T08:08:13;100013.63;;;24.88;88.43
39887;BME280;25559;44.738;20.980;2022-08-21T08:10:39;100007.69;;;24.95;88.05
39887;BME280;25559;44.738;20.980;2022-08-21T08:13:05;100006.34;;;25.01;87.33
39887;BME280;25559;44.738;20.980;2022-08-21T08:15:31;100009.16;;;25.09;86.71
39887;BME280;25559;44.738;20.980;2022-08-21T08:17:56;99992.41;;;25.09;86.09
39887;BME280;25559;44.738;20.980;2022-08-21T08:20:24;100001.41;;;25.17;86.29
39887;BME280;25559;44.738;20.980;2022-08-21T08:22:54;99999.44;;;25.19;85.67
39887;BME280;25559;44.738;20.980;2022-08-21T08:25:21;100005.31;;;25.23;85.14
39887;BME280;25559;44.738;20.980;2022-08-21T08:27:48;100003.25;;;25.27;84.58
39887;BME280;25559;44.738;20.980;2022-08-21T08:30:16;100003.13;;;25.28;84.54
39887;BME280;25559;44.738;20.980;2022-08-21T08:32:42;100006.75;;;25.27;84.35
39887;BME280;25559;44.738;20.980;2022-08-21T08:35:08;99998.22;;;25.24;84.15
39887;BME280;25559;44.738;20.980;2022-08-21T08:37:34;99996.59;;;25.32;84.27
39887;BME280;25559;44.738;20.980;2022-08-21T08:40:04;99997.63;;;25.41;83.54
39887;BME280;25559;44.738;20.980;2022-08-21T08:42:33;99999.59;;;25.49;82.80
39887;BME280;25559;44.738;20.980;2022-08-21T08:45:06;100001.59;;;25.57;82.23
39887;BME280;25559;44.738;20.980;2022-08-21T08:47:37;100002.72;;;25.64;81.59
39887;BME280;25559;44.738;20.980;2022-08-21T08:50:11;100002.72;;;25.64;81.46
39887;BME280;25559;44.738;20.980;2022-08-21T08:52:45;99997.69;;;25.61;80.85
39887;BME280;25559;44.738;20.980;2022-08-21T08:55:55;99999.94;;;25.65;80.75
39887;BME280;25559;44.738;20.980;2022-08-21T08:58:02;100001.03;;;25.63;80.71
39887;BME280;25559;44.738;20.980;2022-08-21T09:00:30;100007.34;;;25.62;80.54
39887;BME280;25559;44.738;20.980;2022-08-21T09:02:58;100006.47;;;25.61;80.60
39887;BME280;25559;44.738;20.980;2022-08-21T09:05:33;100002.16;;;25.60;80.54
39887;BME280;25559;44.738;20.980;2022-08-21T09:08:20;100003.28;;;25.58;80.28
39887;BME280;25559;44.738;20.980;2022-08-21T09:13:27;99995.03;;;25.51;80.26
39887;BME280;25559;44.738;20.980;2022-08-21T09:16:08;99993.47;;;25.48;80.67
39887;BME280;25559;44.738;20.980;2022-08-21T09:18:53;99998.91;;;25.47;80.90
39887;BME280;25559;44.738;20.980;2022-08-21T09:27:04;99989.53;;;25.43;80.83
39887;BME280;25559;44.738;20.980;2022-08-21T09:29:33;99986.75;;;25.44;80.65
39887;BME280;25559;44.738;20.980;2022-08-21T09:32:00;99985.50;;;25.48;80.80
39887;BME280;25559;44.738;20.980;2022-08-21T09:34:29;99984.16;;;25.54;80.30
39887;BME280;25559;44.738;20.980;2022-08-21T09:36:56;99979.00;;;25.62;80.57
39887;BME280;25559;44.738;20.980;2022-08-21T09:39:31;99967.53;;;25.62;79.88
39887;BME280;25559;44.738;20.980;2022-08-21T09:42:05;99975.38;;;25.73;79.60
39887;BME280;25559;44.738;20.980;2022-08-21T09:44:34;99971.50;;;25.77;79.20
39887;BME280;25559;44.738;20.980;2022-08-21T09:47:04;99975.97;;;25.86;78.66
39887;BME280;25559;44.738;20.980;2022-08-21T09:49:34;99958.94;;;25.89;78.41
39887;BME280;25559;44.738;20.980;2022-08-21T09:52:01;99968.22;;;26.04;77.84
39887;BME280;25559;44.738;20.980;2022-08-21T09:54:37;99969.22;;;26.13;77.31
39887;BME280;25559;44.738;20.980;2022-08-21T09:59:54;99962.91;;;26.73;74.71
39887;BME280;25559;44.738;20.980;2022-08-21T10:02:31;99963.59;;;27.32;72.93
39887;BME280;25559;44.738;20.980;2022-08-21T10:07:26;99960.47;;;27.92;69.47
39887;BME280;25559;44.738;20.980;2022-08-21T10:10:14;99962.25;;;28.02;68.70
39887;BME280;25559;44.738;20.980;2022-08-21T10:15:53;99963.59;;;28.06;67.09
39887;BME280;25559;44.738;20.980;2022-08-21T10:18:42;99966.72;;;28.01;66.29
39887;BME280;25559;44.738;20.980;2022-08-21T10:24:08;99961.38;;;28.01;66.51
39887;BME280;25559;44.738;20.980;2022-08-21T10:27:15;99959.03;;;28.16;66.11
39887;BME280;25559;44.738;20.980;2022-08-21T10:40:25;99947.44;;;28.61;63.77
39887;BME280;25559;44.738;20.980;2022-08-21T10:45:48;99953.59;;;29.14;61.60
39887;BME280;25559;44.738;20.980;2022-08-21T10:48:25;99940.19;;;29.32;61.10
39887;BME280;25559;44.738;20.980;2022-08-21T10:51:06;99938.38;;;29.41;60.44
39887;BME280;25559;44.738;20.980;2022-08-21T10:56:22;99942.81;;;29.24;61.23
39887;BME280;25559;44.738;20.980;2022-08-21T11:01:59;99939.75;;;28.84;63.23
39887;BME280;25559;44.738;20.980;2022-08-21T11:04:33;99931.81;;;28.66;63.92
39887;BME280;25559;44.738;20.980;2022-08-21T11:07:05;99933.50;;;28.49;64.06
39887;BME280;25559;44.738;20.980;2022-08-21T11:09:32;99926.91;;;28.35;65.19
39887;BME280;25559;44.738;20.980;2022-08-21T11:12:22;99915.47;;;28.25;65.59
39887;BME280;25559;44.738;20.980;2022-08-21T11:17:30;99909.50;;;28.49;64.52
39887;BME280;25559;44.738;20.980;2022-08-21T11:20:15;99906.97;;;28.66;63.54
39887;BME280;25559;44.738;20.980;2022-08-21T11:22:50;99905.06;;;28.76;62.81
39887;BME280;25559;44.738;20.980;2022-08-21T11:27:51;99899.81;;;28.66;62.52
39887;BME280;25559;44.738;20.980;2022-08-21T11:30:18;99901.03;;;28.54;62.22
39887;BME280;25559;44.738;20.980;2022-08-21T11:43:27;99911.66;;;27.74;66.55
39887;BME280;25559;44.738;20.980;2022-08-21T11:45:59;99908.81;;;27.57;68.57
39887;BME280;25559;44.738;20.980;2022-08-21T11:49:02;99910.16;;;27.43;70.21
39887;BME280;25559;44.738;20.980;2022-08-21T11:51:38;99921.44;;;27.27;72.77
39887;BME280;25559;44.738;20.980;2022-08-21T11:54:39;99920.69;;;27.07;74.96
39887;BME280;25559;44.738;20.980;2022-08-21T11:57:31;99922.97;;;26.92;77.35
39887;BME280;25559;44.738;20.980;2022-08-21T12:00:05;99916.31;;;26.79;79.40
39887;BME280;25559;44.738;20.980;2022-08-21T12:02:48;99918.56;;;26.64;80.96
39887;BME280;25559;44.738;20.980;2022-08-21T12:05:30;99922.50;;;26.50;82.55
39887;BME280;25559;44.738;20.980;2022-08-21T12:08:03;99915.53;;;26.39;83.75
39887;BME280;25559;44.738;20.980;2022-08-21T12:10:36;99906.72;;;26.29;84.36
39887;BME280;25559;44.738;20.980;2022-08-21T12:13:10;99911.47;;;26.25;85.15
39887;BME280;25559;44.738;20.980;2022-08-21T12:15:37;99919.03;;;26.20;85.88
39887;BME280;25559;44.738;20.980;2022-08-21T12:18:06;99914.13;;;26.15;86.79
39887;BME280;25559;44.738;20.980;2022-08-21T12:24:03;99925.19;;;26.11;87.53
39887;BME280;25559;44.738;20.980;2022-08-21T12:26:35;99918.59;;;26.05;87.25
39887;BME280;25559;44.738;20.980;2022-08-21T12:32:00;99927.94;;;25.99;87.50
39887;BME280;25559;44.738;20.980;2022-08-21T12:34:33;99921.38;;;25.94;88.09
39887;BME280;25559;44.738;20.980;2022-08-21T12:37:04;99920.78;;;25.90;88.36
39887;BME280;25559;44.738;20.980;2022-08-21T12:39:34;99922.63;;;25.89;89.22
39887;BME280;25559;44.738;20.980;2022-08-21T12:42:11;99917.31;;;25.89;89.60
39887;BME280;25559;44.738;20.980;2022-08-21T12:44:50;99925.25;;;25.89;90.09
39887;BME280;25559;44.738;20.980;2022-08-21T12:47:31;99935.34;;;25.86;89.95
39887;BME280;25559;44.738;20.980;2022-08-21T12:52:30;99941.34;;;25.78;89.70
39887;BME280;25559;44.738;20.980;2022-08-21T12:54:57;99945.09;;;25.76;89.53
39887;BME280;25559;44.738;20.980;2022-08-21T12:57:26;99943.84;;;25.80;89.57
39887;BME280;25559;44.738;20.980;2022-08-21T12:59:54;99937.13;;;25.85;89.34
39887;BME280;25559;44.738;20.980;2022-08-21T13:02:26;99934.63;;;25.94;89.17
39887;BME280;25559;44.738;20.980;2022-08-21T13:04:54;99944.19;;;26.06;88.55
39887;BME280;25559;44.738;20.980;2022-08-21T13:07:30;99939.72;;;26.16;87.09
39887;BME280;25559;44.738;20.980;2022-08-21T13:10:27;99944.88;;;26.28;87.23
39887;BME280;25559;44.738;20.980;2022-08-21T13:13:00;99943.91;;;26.29;87.41
39887;BME280;25559;44.738;20.980;2022-08-21T13:15:30;99948.50;;;26.27;86.89
39887;BME280;25559;44.738;20.980;2022-08-21T13:17:56;99954.22;;;26.22;86.77
39887;BME280;25559;44.738;20.980;2022-08-21T13:20:31;99953.97;;;26.15;85.23
39887;BME280;25559;44.738;20.980;2022-08-21T13:23:00;99959.97;;;26.08;84.80
39887;BME280;25559;44.738;20.980;2022-08-21T13:25:29;99963.31;;;26.00;84.26
39887;BME280;25559;44.738;20.980;2022-08-21T13:28:10;99957.41;;;25.96;83.83
39887;BME280;25559;44.738;20.980;2022-08-21T13:30:51;99958.22;;;25.87;84.21
39887;BME280;25559;44.738;20.980;2022-08-21T13:33:20;99961.28;;;25.82;85.21
39887;BME280;25559;44.738;20.980;2022-08-21T13:38:23;99957.34;;;25.67;85.51
39887;BME280;25559;44.738;20.980;2022-08-21T13:40:53;99961.25;;;25.63;84.93
39887;BME280;25559;44.738;20.980;2022-08-21T13:43:25;99949.53;;;25.56;85.73
39887;BME280;25559;44.738;20.980;2022-08-21T13:45:53;99954.97;;;25.54;86.46
39887;BME280;25559;44.738;20.980;2022-08-21T13:48:21;99955.94;;;25.53;86.79
39887;BME280;25559;44.738;20.980;2022-08-21T13:50:49;99947.69;;;25.56;86.18
39887;BME280;25559;44.738;20.980;2022-08-21T13:53:36;99958.44;;;25.54;86.34
39887;BME280;25559;44.738;20.980;2022-08-21T13:56:04;99966.13;;;25.48;86.58
39887;BME280;25559;44.738;20.980;2022-08-21T14:00:59;99953.25;;;25.43;85.70
39887;BME280;25559;44.738;20.980;2022-08-21T14:03:43;99963.88;;;25.43;85.32